sensor_id;sensor_type;location;lat;lon;timestamp;P1;durP1;ratioP1;P2;durP2;ratioP2
14592;SDS011;7383;52.354;9.756;2024-01-11T00:01:10;16.38;;;11.98;;
14592;SDS011;7383;52.354;9.756;2024-01-11T00:03:37;15.13;;;12.40;;
14592;SDS011;7383;52.354;9.756;2024-01-11T00:06:03;13.27;;;11.02;;
14592;SDS011;7383;52.354;9.756;2024-01-11T00:08:30;14.00;;;11.02;;
14592;SDS011;7383;52.354;9.756;2024-01-11T00:10:56;14.65;;;11.18;;
14592;SDS011;7383;52.354;9.756;2024-01-11T00:13:23;14.98;;;11.32;;
14592;SDS011;7383;52.354;9.756;2024-01-11T00:15:51;14.63;;;11.35;;
14592;SDS011;7383;52.354;9.756;2024-01-11T00:18:17;13.50;;;11.40;;
14592;SDS011;7383;52.354;9.756;2024-01-11T00:20:44;15.32;;;11.32;;
14592;SDS011;7383;52.354;9.756;2024-01-11T00:23:10;16.05;;;11.40;;
14592;SDS011;7383;52.354;9.756;2024-01-11T00:25:36;14.00;;;10.32;;
14592;SDS011;7383;52.354;9.756;2024-01-11T00:28:05;14.00;;;11.20;;
14592;SDS011;7383;52.354;9.756;2024-01-11T00:30:31;12.23;;;10.38;;
14592;SDS011;7383;52.354;9.756;2024-01-11T00:32:59;15.77;;;11.50;;
14592;SDS011;7383;52.354;9.756;2024-01-11T00:35:25;12.88;;;9.93;;
14592;SDS011;7383;52.354;9.756;2024-01-11T00:37:53;14.68;;;11.25;;
14592;SDS011;7383;52.354;9.756;2024-01-11T00:40:20;13.35;;;10.10;;
14592;SDS011;7383;52.354;9.756;2024-01-11T00:42:46;13.98;;;10.82;;
14592;SDS011;7383;52.354;9.756;2024-01-11T00:45:13;14.65;;;11.55;;
14592;SDS011;7383;52.354;9.756;2024-01-11T00:47:39;14.55;;;10.43;;
14592;SDS011;7383;52.354;9.756;2024-01-11T00:50:07;14.93;;;10.57;;
14592;SDS011;7383;52.354;9.756;2024-01-11T00:52:36;15.18;;;11.00;;
14592;SDS011;7383;52.354;9.756;2024-01-11T00:55:03;14.25;;;11.20;;
14592;SDS011;7383;52.354;9.756;2024-01-11T00:57:30;12.35;;;10.27;;
14592;SDS011;7383;52.354;9.756;2024-01-11T00:59:56;14.00;;;10.90;;
14592;SDS011;7383;52.354;9.756;2024-01-11T01:02:25;14.63;;;11.38;;
14592;SDS011;7383;52.354;9.756;2024-01-11T01:04:51;12.73;;;9.98;;
14592;SDS011;7383;52.354;9.756;2024-01-11T01:07:19;13.98;;;10.80;;
14592;SDS011;7383;52.354;9.756;2024-01-11T01:09:46;13.95;;;10.18;;
14592;SDS011;7383;52.354;9.756;2024-01-11T01:12:12;13.98;;;11.05;;
14592;SDS011;7383;52.354;9.756;2024-01-11T01:14:38;15.00;;;11.05;;
14592;SDS011;7383;52.354;9.756;2024-01-11T01:17:05;13.85;;;10.60;;
14592;SDS011;7383;52.354;9.756;2024-01-11T01:19:31;14.18;;;11.25;;
14592;SDS011;7383;52.354;9.756;2024-01-11T01:21:58;13.18;;;10.13;;
14592;SDS011;7383;52.354;9.756;2024-01-11T01:24:26;15.05;;;11.43;;
14592;SDS011;7383;52.354;9.756;2024-01-11T01:26:54;14.27;;;11.35;;
14592;SDS011;7383;52.354;9.756;2024-01-11T01:29:23;15.57;;;11.20;;
14592;SDS011;7383;52.354;9.756;2024-01-11T01:31:49;14.05;;;11.05;;
14592;SDS011;7383;52.354;9.756;2024-01-11T01:34:16;14.77;;;10.70;;
14592;SDS011;7383;52.354;9.756;2024-01-11T01:36:42;15.35;;;10.70;;
14592;SDS011;7383;52.354;9.756;2024-01-11T01:39:08;15.52;;;11.48;;
14592;SDS011;7383;52.354;9.756;2024-01-11T01:41:36;15.55;;;11.05;;
14592;SDS011;7383;52.354;9.756;2024-01-11T01:44:03;14.55;;;10.68;;
14592;SDS011;7383;52.354;9.756;2024-01-11T01:46:29;13.20;;;10.68;;
14592;SDS011;7383;52.354;9.756;2024-01-11T01:48:56;13.60;;;11.18;;
14592;SDS011;7383;52.354;9.756;2024-01-11T01:51:24;14.68;;;11.55;;
14592;SDS011;7383;52.354;9.756;2024-01-11T01:53:53;13.75;;;10.52;;
14592;SDS011;7383;52.354;9.756;2024-01-11T01:56:20;15.25;;;11.43;;
14592;SDS011;7383;52.354;9.756;2024-01-11T01:58:48;13.85;;;10.52;;
14592;SDS011;7383;52.354;9.756;2024-01-11T02:01:16;15.15;;;11.45;;
14592;SDS011;7383;52.354;9.756;2024-01-11T02:03:43;15.43;;;11.35;;
14592;SDS011;7383;52.354;9.756;2024-01-11T02:06:09;13.60;;;10.35;;
14592;SDS011;7383;52.354;9.756;2024-01-11T02:08:36;15.77;;;11.00;;
14592;SDS011;7383;52.354;9.756;2024-01-11T02:11:03;14.63;;;10.80;;
14592;SDS011;7383;52.354;9.756;2024-01-11T02:13:29;11.90;;;10.35;;
14592;SDS011;7383;52.354;9.756;2024-01-11T02:15:57;14.98;;;11.50;;
14592;SDS011;7383;52.354;9.756;2024-01-11T02:18:24;14.70;;;12.05;;
14592;SDS011;7383;52.354;9.756;2024-01-11T02:20:50;16.85;;;11.48;;
14592;SDS011;7383;52.354;9.756;2024-01-11T02:23:17;14.82;;;11.82;;
14592;SDS011;7383;52.354;9.756;2024-01-11T02:25:46;16.23;;;12.07;;
14592;SDS011;7383;52.354;9.756;2024-01-11T02:28:13;16.33;;;12.20;;
14592;SDS011;7383;52.354;9.756;2024-01-11T02:30:39;15.32;;;11.30;;
14592;SDS011;7383;52.354;9.756;2024-01-11T02:33:06;15.07;;;11.18;;
14592;SDS011;7383;52.354;9.756;2024-01-11T02:35:33;15.07;;;11.23;;
14592;SDS011;7383;52.354;9.756;2024-01-11T02:38:00;14.93;;;10.63;;
14592;SDS011;7383;52.354;9.756;2024-01-11T02:40:27;14.90;;;11.38;;
14592;SDS011;7383;52.354;9.756;2024-01-11T02:42:56;17.25;;;11.80;;
14592;SDS011;7383;52.354;9.756;2024-01-11T02:45:22;15.20;;;11.05;;
14592;SDS011;7383;52.354;9.756;2024-01-11T02:47:48;18.38;;;12.32;;
14592;SDS011;7383;52.354;9.756;2024-01-11T02:50:15;15.40;;;11.65;;
14592;SDS011;7383;52.354;9.756;2024-01-11T02:52:42;16.20;;;12.10;;
14592;SDS011;7383;52.354;9.756;2024-01-11T02:55:08;15.93;;;12.07;;
14592;SDS011;7383;52.354;9.756;2024-01-11T02:57:38;17.35;;;12.52;;
14592;SDS011;7383;52.354;9.756;2024-01-11T03:00:09;17.02;;;12.30;;
14592;SDS011;7383;52.354;9.756;2024-01-11T03:02:36;16.17;;;11.45;;
14592;SDS011;7383;52.354;9.756;2024-01-11T03:05:04;14.23;;;11.15;;
14592;SDS011;7383;52.354;9.756;2024-01-11T03:07:32;15.82;;;11.50;;
14592;SDS011;7383;52.354;9.756;2024-01-11T03:09:59;14.80;;;11.10;;
14592;SDS011;7383;52.354;9.756;2024-01-11T03:12:25;13.23;;;10.00;;
14592;SDS011;7383;52.354;9.756;2024-01-11T03:14:52;15.05;;;11.50;;
14592;SDS011;7383;52.354;9.756;2024-01-11T03:17:19;15.45;;;11.63;;
14592;SDS011;7383;52.354;9.756;2024-01-11T03:19:46;14.18;;;10.88;;
14592;SDS011;7383;52.354;9.756;2024-01-11T03:22:13;16.15;;;11.48;;
14592;SDS011;7383;52.354;9.756;2024-01-11T03:24:39;14.13;;;11.48;;
14592;SDS011;7383;52.354;9.756;2024-01-11T03:27:06;15.90;;;12.15;;
14592;SDS011;7383;52.354;9.756;2024-01-11T03:29:32;14.20;;;11.00;;
14592;SDS011;7383;52.354;9.756;2024-01-11T03:31:58;14.57;;;10.93;;
14592;SDS011;7383;52.354;9.756;2024-01-11T03:34:27;14.93;;;11.40;;
14592;SDS011;7383;52.354;9.756;2024-01-11T03:36:53;14.30;;;10.80;;
14592;SDS011;7383;52.354;9.756;2024-01-11T03:39:19;13.98;;;10.75;;
14592;SDS011;7383;52.354;9.756;2024-01-11T03:41:46;15.35;;;11.05;;
14592;SDS011;7383;52.354;9.756;2024-01-11T03:44:12;15.02;;;11.27;;
14592;SDS011;7383;52.354;9.756;2024-01-11T03:46:38;15.25;;;11.05;;
14592;SDS011;7383;52.354;9.756;2024-01-11T03:49:06;14.65;;;11.10;;
14592;SDS011;7383;52.354;9.756;2024-01-11T03:51:35;13.75;;;10.75;;
14592;SDS011;7383;52.354;9.756;2024-01-11T03:54:02;17.10;;;11.32;;
14592;SDS011;7383;52.354;9.756;2024-01-11T03:56:28;14.05;;;11.00;;
14592;SDS011;7383;52.354;9.756;2024-01-11T03:58:54;13.23;;;10.40;;
14592;SDS011;7383;52.354;9.756;2024-01-11T04:01:22;15.63;;;11.60;;
14592;SDS011;7383;52.354;9.756;2024-01-11T04:03:48;15.05;;;10.95;;
14592;SDS011;7383;52.354;9.756;2024-01-11T04:06:18;14.05;;;11.00;;
14592;SDS011;7383;52.354;9.756;2024-01-11T04:08:47;15.02;;;10.60;;
14592;SDS011;7383;52.354;9.756;2024-01-11T04:11:13;14.13;;;10.88;;
14592;SDS011;7383;52.354;9.756;2024-01-11T04:13:40;16.58;;;11.52;;
14592;SDS011;7383;52.354;9.756;2024-01-11T04:16:06;16.83;;;11.80;;
14592;SDS011;7383;52.354;9.756;2024-01-11T04:18:33;15.70;;;11.88;;
14592;SDS011;7383;52.354;9.756;2024-01-11T04:21:00;14.88;;;10.93;;
14592;SDS011;7383;52.354;9.756;2024-01-11T04:23:26;13.88;;;11.25;;
14592;SDS011;7383;52.354;9.756;2024-01-11T04:25:54;15.13;;;11.35;;
14592;SDS011;7383;52.354;9.756;2024-01-11T04:28:21;14.40;;;10.85;;
14592;SDS011;7383;52.354;9.756;2024-01-11T04:30:47;14.57;;;11.57;;
14592;SDS011;7383;52.354;9.756;2024-01-11T04:33:13;15.45;;;12.20;;
14592;SDS011;7383;52.354;9.756;2024-01-11T04:35:40;15.57;;;11.60;;
14592;SDS011;7383;52.354;9.756;2024-01-11T04:38:07;14.25;;;11.27;;
14592;SDS011;7383;52.354;9.756;2024-01-11T04:40:33;14.27;;;11.07;;
14592;SDS011;7383;52.354;9.756;2024-01-11T04:43:01;15.27;;;11.43;;
14592;SDS011;7383;52.354;9.756;2024-01-11T04:45:27;16.02;;;11.48;;
14592;SDS011;7383;52.354;9.756;2024-01-11T04:47:54;14.52;;;11.27;;
14592;SDS011;7383;52.354;9.756;2024-01-11T04:50:21;14.98;;;11.68;;
14592;SDS011;7383;52.354;9.756;2024-01-11T04:52:47;16.55;;;11.88;;
14592;SDS011;7383;52.354;9.756;2024-01-11T04:55:14;15.75;;;11.38;;
14592;SDS011;7383;52.354;9.756;2024-01-11T04:57:40;15.93;;;11.40;;
14592;SDS011;7383;52.354;9.756;2024-01-11T05:00:09;14.88;;;10.82;;
14592;SDS011;7383;52.354;9.756;2024-01-11T05:02:36;15.05;;;11.43;;
14592;SDS011;7383;52.354;9.756;2024-01-11T05:05:02;13.60;;;10.50;;
14592;SDS011;7383;52.354;9.756;2024-01-11T05:07:29;14.57;;;10.27;;
14592;SDS011;7383;52.354;9.756;2024-01-11T05:09:55;14.43;;;11.07;;
14592;SDS011;7383;52.354;9.756;2024-01-11T05:12:22;14.00;;;11.00;;
14592;SDS011;7383;52.354;9.756;2024-01-11T05:14:48;14.50;;;10.57;;
14592;SDS011;7383;52.354;9.756;2024-01-11T05:17:16;13.02;;;10.43;;
14592;SDS011;7383;52.354;9.756;2024-01-11T05:19:42;17.13;;;12.15;;
14592;SDS011;7383;52.354;9.756;2024-01-11T05:22:08;13.68;;;10.80;;
14592;SDS011;7383;52.354;9.756;2024-01-11T05:24:35;15.70;;;10.80;;
14592;SDS011;7383;52.354;9.756;2024-01-11T05:27:01;14.63;;;10.07;;
14592;SDS011;7383;52.354;9.756;2024-01-11T05:29:29;14.85;;;11.02;;
14592;SDS011;7383;52.354;9.756;2024-01-11T05:31:57;12.52;;;9.68;;
14592;SDS011;7383;52.354;9.756;2024-01-11T05:34:25;14.88;;;10.75;;
14592;SDS011;7383;52.354;9.756;2024-01-11T05:36:52;14.65;;;10.80;;
14592;SDS011;7383;52.354;9.756;2024-01-11T05:39:21;14.80;;;9.65;;
14592;SDS011;7383;52.354;9.756;2024-01-11T05:41:49;14.45;;;10.50;;
14592;SDS011;7383;52.354;9.756;2024-01-11T05:44:15;14.52;;;11.02;;
14592;SDS011;7383;52.354;9.756;2024-01-11T05:46:41;15.00;;;11.40;;
14592;SDS011;7383;52.354;9.756;2024-01-11T05:49:08;16.27;;;11.80;;
14592;SDS011;7383;52.354;9.756;2024-01-11T05:51:36;14.48;;;11.35;;
14592;SDS011;7383;52.354;9.756;2024-01-11T05:54:02;13.55;;;10.30;;
14592;SDS011;7383;52.354;9.756;2024-01-11T05:56:29;15.93;;;11.90;;
14592;SDS011;7383;52.354;9.756;2024-01-11T05:58:55;14.98;;;10.43;;
14592;SDS011;7383;52.354;9.756;2024-01-11T06:01:22;15.60;;;11.25;;
14592;SDS011;7383;52.354;9.756;2024-01-11T06:03:49;16.38;;;11.30;;
14592;SDS011;7383;52.354;9.756;2024-01-11T06:06:15;15.88;;;10.90;;
14592;SDS011;7383;52.354;9.756;2024-01-11T06:08:43;12.88;;;10.02;;
14592;SDS011;7383;52.354;9.756;2024-01-11T06:11:10;14.15;;;10.80;;
14592;SDS011;7383;52.354;9.756;2024-01-11T06:13:39;13.60;;;10.68;;
14592;SDS011;7383;52.354;9.756;2024-01-11T06:16:06;14.98;;;10.13;;
14592;SDS011;7383;52.354;9.756;2024-01-11T06:18:32;15.13;;;11.50;;
14592;SDS011;7383;52.354;9.756;2024-01-11T06:20:59;16.15;;;11.45;;
14592;SDS011;7383;52.354;9.756;2024-01-11T06:23:25;13.00;;;10.15;;
14592;SDS011;7383;52.354;9.756;2024-01-11T06:25:53;11.82;;;9.52;;
14592;SDS011;7383;52.354;9.756;2024-01-11T06:28:19;14.95;;;10.55;;
14592;SDS011;7383;52.354;9.756;2024-01-11T06:30:46;17.65;;;12.07;;
14592;SDS011;7383;52.354;9.756;2024-01-11T06:33:12;13.32;;;10.45;;
14592;SDS011;7383;52.354;9.756;2024-01-11T06:35:38;14.48;;;11.73;;
14592;SDS011;7383;52.354;9.756;2024-01-11T06:38:05;13.15;;;10.07;;
14592;SDS011;7383;52.354;9.756;2024-01-11T06:40:31;14.75;;;10.77;;
14592;SDS011;7383;52.354;9.756;2024-01-11T06:42:59;15.55;;;10.75;;
14592;SDS011;7383;52.354;9.756;2024-01-11T06:45:26;14.40;;;10.82;;
14592;SDS011;7383;52.354;9.756;2024-01-11T06:47:52;15.23;;;11.38;;
14592;SDS011;7383;52.354;9.756;2024-01-11T06:50:18;14.90;;;10.73;;
14592;SDS011;7383;52.354;9.756;2024-01-11T06:52:45;15.68;;;11.27;;
14592;SDS011;7383;52.354;9.756;2024-01-11T06:55:11;15.20;;;12.05;;
14592;SDS011;7383;52.354;9.756;2024-01-11T06:57:38;14.60;;;10.95;;
14592;SDS011;7383;52.354;9.756;2024-01-11T07:00:06;14.60;;;11.00;;
14592;SDS011;7383;52.354;9.756;2024-01-11T07:02:33;16.88;;;12.32;;
14592;SDS011;7383;52.354;9.756;2024-01-11T07:04:59;14.07;;;10.88;;
14592;SDS011;7383;52.354;9.756;2024-01-11T07:07:26;17.02;;;11.85;;
14592;SDS011;7383;52.354;9.756;2024-01-11T07:09:52;13.77;;;10.57;;
14592;SDS011;7383;52.354;9.756;2024-01-11T07:12:20;14.70;;;10.85;;
14592;SDS011;7383;52.354;9.756;2024-01-11T07:14:46;15.88;;;10.57;;
14592;SDS011;7383;52.354;9.756;2024-01-11T07:17:14;13.55;;;10.48;;
14592;SDS011;7383;52.354;9.756;2024-01-11T07:19:40;13.00;;;9.50;;
14592;SDS011;7383;52.354;9.756;2024-01-11T07:22:07;14.35;;;10.65;;
14592;SDS011;7383;52.354;9.756;2024-01-11T07:24:33;14.90;;;11.38;;
14592;SDS011;7383;52.354;9.756;2024-01-11T07:27:02;16.73;;;11.43;;
14592;SDS011;7383;52.354;9.756;2024-01-11T07:29:28;15.88;;;11.52;;
14592;SDS011;7383;52.354;9.756;2024-01-11T07:31:55;15.45;;;10.40;;
14592;SDS011;7383;52.354;9.756;2024-01-11T07:34:23;13.75;;;10.48;;
14592;SDS011;7383;52.354;9.756;2024-01-11T07:36:49;16.52;;;11.52;;
14592;SDS011;7383;52.354;9.756;2024-01-11T07:39:16;14.88;;;11.02;;
14592;SDS011;7383;52.354;9.756;2024-01-11T07:41:43;14.10;;;11.25;;
14592;SDS011;7383;52.354;9.756;2024-01-11T07:44:11;15.48;;;11.30;;
14592;SDS011;7383;52.354;9.756;2024-01-11T07:46:38;13.68;;;10.60;;
14592;SDS011;7383;52.354;9.756;2024-01-11T07:49:04;15.60;;;10.82;;
14592;SDS011;7383;52.354;9.756;2024-01-11T07:51:33;12.82;;;10.65;;
14592;SDS011;7383;52.354;9.756;2024-01-11T07:54:00;16.05;;;10.65;;
14592;SDS011;7383;52.354;9.756;2024-01-11T07:56:27;15.13;;;11.32;;
14592;SDS011;7383;52.354;9.756;2024-01-11T07:58:53;17.02;;;11.57;;
14592;SDS011;7383;52.354;9.756;2024-01-11T08:01:20;14.80;;;11.55;;
14592;SDS011;7383;52.354;9.756;2024-01-11T08:03:46;16.58;;;11.45;;
14592;SDS011;7383;52.354;9.756;2024-01-11T08:06:13;17.20;;;11.82;;
14592;SDS011;7383;52.354;9.756;2024-01-11T08:08:41;14.90;;;10.38;;
14592;SDS011;7383;52.354;9.756;2024-01-11T08:11:07;15.02;;;11.05;;
14592;SDS011;7383;52.354;9.756;2024-01-11T08:13:34;14.82;;;11.48;;
14592;SDS011;7383;52.354;9.756;2024-01-11T08:16:00;16.60;;;12.18;;
14592;SDS011;7383;52.354;9.756;2024-01-11T08:18:28;15.25;;;11.25;;
14592;SDS011;7383;52.354;9.756;2024-01-11T08:20:55;18.23;;;12.32;;
14592;SDS011;7383;52.354;9.756;2024-01-11T08:23:21;16.95;;;12.27;;
14592;SDS011;7383;52.354;9.756;2024-01-11T08:25:50;15.70;;;11.88;;
14592;SDS011;7383;52.354;9.756;2024-01-11T08:28:17;14.98;;;11.55;;
14592;SDS011;7383;52.354;9.756;2024-01-11T08:30:44;15.52;;;11.25;;
14592;SDS011;7383;52.354;9.756;2024-01-11T08:33:10;13.52;;;11.35;;
14592;SDS011;7383;52.354;9.756;2024-01-11T08:35:38;15.35;;;11.35;;
14592;SDS011;7383;52.354;9.756;2024-01-11T08:38:05;15.40;;;11.18;;
14592;SDS011;7383;52.354;9.756;2024-01-11T08:40:32;15.93;;;11.45;;
14592;SDS011;7383;52.354;9.756;2024-01-11T08:43:00;15.02;;;11.30;;
14592;SDS011;7383;52.354;9.756;2024-01-11T08:45:27;18.38;;;12.57;;
14592;SDS011;7383;52.354;9.756;2024-01-11T08:47:55;17.75;;;12.38;;
14592;SDS011;7383;52.354;9.756;2024-01-11T08:50:22;16.02;;;11.43;;
14592;SDS011;7383;52.354;9.756;2024-01-11T08:52:48;16.38;;;12.32;;
14592;SDS011;7383;52.354;9.756;2024-01-11T08:55:14;14.40;;;11.20;;
14592;SDS011;7383;52.354;9.756;2024-01-11T08:57:41;16.15;;;11.40;;
14592;SDS011;7383;52.354;9.756;2024-01-11T09:00:09;14.40;;;11.65;;
14592;SDS011;7383;52.354;9.756;2024-01-11T09:02:35;14.05;;;11.27;;
14592;SDS011;7383;52.354;9.756;2024-01-11T09:05:04;16.52;;;11.52;;
14592;SDS011;7383;52.354;9.756;2024-01-11T09:07:32;16.20;;;11.65;;
14592;SDS011;7383;52.354;9.756;2024-01-11T09:09:58;17.17;;;11.60;;
14592;SDS011;7383;52.354;9.756;2024-01-11T09:12:24;13.95;;;10.68;;
14592;SDS011;7383;52.354;9.756;2024-01-11T09:14:51;13.32;;;10.85;;
14592;SDS011;7383;52.354;9.756;2024-01-11T09:17:18;15.60;;;11.25;;
14592;SDS011;7383;52.354;9.756;2024-01-11T09:19:45;16.20;;;11.38;;
14592;SDS011;7383;52.354;9.756;2024-01-11T09:22:12;15.48;;;11.38;;
14592;SDS011;7383;52.354;9.756;2024-01-11T09:24:38;15.00;;;10.38;;
14592;SDS011;7383;52.354;9.756;2024-01-11T09:27:04;14.90;;;11.25;;
14592;SDS011;7383;52.354;9.756;2024-01-11T09:29:31;15.65;;;11.27;;
14592;SDS011;7383;52.354;9.756;2024-01-11T09:31:58;15.55;;;12.00;;
14592;SDS011;7383;52.354;9.756;2024-01-11T09:34:26;14.80;;;11.63;;
14592;SDS011;7383;52.354;9.756;2024-01-11T09:36:52;15.20;;;12.23;;
14592;SDS011;7383;52.354;9.756;2024-01-11T09:39:18;15.05;;;10.57;;
14592;SDS011;7383;52.354;9.756;2024-01-11T09:41:47;15.82;;;12.15;;
14592;SDS011;7383;52.354;9.756;2024-01-11T09:44:17;14.02;;;10.18;;
14592;SDS011;7383;52.354;9.756;2024-01-11T09:46:44;15.25;;;10.90;;
14592;SDS011;7383;52.354;9.756;2024-01-11T09:49:10;17.10;;;11.85;;
14592;SDS011;7383;52.354;9.756;2024-01-11T09:51:39;16.83;;;11.93;;
14592;SDS011;7383;52.354;9.756;2024-01-11T09:54:05;16.50;;;12.30;;
14592;SDS011;7383;52.354;9.756;2024-01-11T09:56:32;18.85;;;12.43;;
14592;SDS011;7383;52.354;9.756;2024-01-11T09:59:00;15.07;;;10.98;;
14592;SDS011;7383;52.354;9.756;2024-01-11T10:01:30;15.55;;;11.85;;
14592;SDS011;7383;52.354;9.756;2024-01-11T10:03:56;20.90;;;13.00;;
14592;SDS011;7383;52.354;9.756;2024-01-11T10:06:22;16.02;;;12.00;;
14592;SDS011;7383;52.354;9.756;2024-01-11T10:08:51;14.98;;;11.60;;
14592;SDS011;7383;52.354;9.756;2024-01-11T10:11:17;16.98;;;11.90;;
14592;SDS011;7383;52.354;9.756;2024-01-11T10:13:44;16.88;;;12.18;;
14592;SDS011;7383;52.354;9.756;2024-01-11T10:16:11;16.55;;;12.00;;
14592;SDS011;7383;52.354;9.756;2024-01-11T10:18:38;16.92;;;11.65;;
14592;SDS011;7383;52.354;9.756;2024-01-11T10:24:09;17.20;;;10.98;;
14592;SDS011;7383;52.354;9.756;2024-01-11T10:26:35;15.75;;;11.25;;
14592;SDS011;7383;52.354;9.756;2024-01-11T10:29:01;17.55;;;12.15;;
14592;SDS011;7383;52.354;9.756;2024-01-11T10:31:30;15.18;;;11.05;;
14592;SDS011;7383;52.354;9.756;2024-01-11T10:33:57;13.68;;;10.50;;
14592;SDS011;7383;52.354;9.756;2024-01-11T10:36:23;13.93;;;10.60;;
14592;SDS011;7383;52.354;9.756;2024-01-11T10:38:49;18.63;;;12.25;;
14592;SDS011;7383;52.354;9.756;2024-01-11T10:41:18;13.32;;;10.00;;
14592;SDS011;7383;52.354;9.756;2024-01-11T10:43:45;14.43;;;10.73;;
14592;SDS011;7383;52.354;9.756;2024-01-11T10:46:12;15.50;;;10.68;;
14592;SDS011;7383;52.354;9.756;2024-01-11T10:48:38;15.95;;;11.07;;
14592;SDS011;7383;52.354;9.756;2024-01-11T10:51:05;13.73;;;9.98;;
14592;SDS011;7383;52.354;9.756;2024-01-11T10:53:36;15.70;;;11.10;;
14592;SDS011;7383;52.354;9.756;2024-01-11T10:56:03;14.75;;;10.95;;
14592;SDS011;7383;52.354;9.756;2024-01-11T10:58:33;16.30;;;10.98;;
14592;SDS011;7383;52.354;9.756;2024-01-11T11:01:00;15.20;;;11.15;;
14592;SDS011;7383;52.354;9.756;2024-01-11T11:03:29;16.35;;;11.88;;
14592;SDS011;7383;52.354;9.756;2024-01-11T11:05:56;17.13;;;11.27;;
14592;SDS011;7383;52.354;9.756;2024-01-11T11:08:24;18.42;;;12.65;;
14592;SDS011;7383;52.354;9.756;2024-01-11T11:10:53;18.20;;;12.52;;
14592;SDS011;7383;52.354;9.756;2024-01-11T11:13:20;16.50;;;11.55;;
14592;SDS011;7383;52.354;9.756;2024-01-11T11:15:48;15.88;;;10.45;;
14592;SDS011;7383;52.354;9.756;2024-01-11T11:18:15;16.38;;;11.13;;
14592;SDS011;7383;52.354;9.756;2024-01-11T11:20:41;14.25;;;10.95;;
14592;SDS011;7383;52.354;9.756;2024-01-11T11:23:08;14.43;;;10.30;;
14592;SDS011;7383;52.354;9.756;2024-01-11T11:25:35;15.90;;;10.35;;
14592;SDS011;7383;52.354;9.756;2024-01-11T11:28:02;14.30;;;9.85;;
14592;SDS011;7383;52.354;9.756;2024-01-11T11:30:29;17.52;;;11.43;;
14592;SDS011;7383;52.354;9.756;2024-01-11T11:32:57;18.65;;;11.45;;
14592;SDS011;7383;52.354;9.756;2024-01-11T11:35:23;15.40;;;9.45;;
14592;SDS011;7383;52.354;9.756;2024-01-11T11:37:56;12.68;;;9.27;;
14592;SDS011;7383;52.354;9.756;2024-01-11T11:40:31;12.70;;;10.20;;
14592;SDS011;7383;52.354;9.756;2024-01-11T11:42:57;13.82;;;9.82;;
14592;SDS011;7383;52.354;9.756;2024-01-11T11:45:24;12.55;;;9.43;;
14592;SDS011;7383;52.354;9.756;2024-01-11T11:47:50;15.00;;;10.05;;
14592;SDS011;7383;52.354;9.756;2024-01-11T11:50:18;12.32;;;9.70;;
14592;SDS011;7383;52.354;9.756;2024-01-11T11:52:47;12.65;;;9.43;;
14592;SDS011;7383;52.354;9.756;2024-01-11T11:55:19;14.52;;;10.10;;
14592;SDS011;7383;52.354;9.756;2024-01-11T11:57:45;12.15;;;9.48;;
14592;SDS011;7383;52.354;9.756;2024-01-11T12:00:12;11.07;;;8.30;;
14592;SDS011;7383;52.354;9.756;2024-01-11T12:02:39;12.40;;;9.13;;
14592;SDS011;7383;52.354;9.756;2024-01-11T12:05:06;12.30;;;8.93;;
14592;SDS011;7383;52.354;9.756;2024-01-11T12:07:35;11.65;;;8.27;;
14592;SDS011;7383;52.354;9.756;2024-01-11T12:10:02;13.80;;;9.45;;
14592;SDS011;7383;52.354;9.756;2024-01-11T12:12:28;10.80;;;7.20;;
14592;SDS011;7383;52.354;9.756;2024-01-11T12:14:55;9.85;;;7.40;;
14592;SDS011;7383;52.354;9.756;2024-01-11T12:17:21;7.93;;;6.45;;
14592;SDS011;7383;52.354;9.756;2024-01-11T12:19:48;7.82;;;6.32;;
14592;SDS011;7383;52.354;9.756;2024-01-11T12:22:15;6.72;;;5.65;;
14592;SDS011;7383;52.354;9.756;2024-01-11T12:24:42;8.70;;;6.57;;
14592;SDS011;7383;52.354;9.756;2024-01-11T12:27:09;7.93;;;6.15;;
14592;SDS011;7383;52.354;9.756;2024-01-11T12:29:35;8.45;;;6.10;;
14592;SDS011;7383;52.354;9.756;2024-01-11T12:32:01;8.13;;;6.10;;
14592;SDS011;7383;52.354;9.756;2024-01-11T12:34:28;8.10;;;6.00;;
14592;SDS011;7383;52.354;9.756;2024-01-11T12:36:55;7.70;;;6.00;;
14592;SDS011;7383;52.354;9.756;2024-01-11T12:39:25;6.47;;;5.72;;
14592;SDS011;7383;52.354;9.756;2024-01-11T12:41:53;8.18;;;6.07;;
14592;SDS011;7383;52.354;9.756;2024-01-11T12:44:21;7.95;;;5.88;;
14592;SDS011;7383;52.354;9.756;2024-01-11T12:46:48;8.13;;;5.97;;
14592;SDS011;7383;52.354;9.756;2024-01-11T12:49:15;6.28;;;5.35;;
14592;SDS011;7383;52.354;9.756;2024-01-11T12:51:41;8.48;;;6.40;;
14592;SDS011;7383;52.354;9.756;2024-01-11T12:54:10;8.13;;;6.05;;
14592;SDS011;7383;52.354;9.756;2024-01-11T12:56:40;7.95;;;5.65;;
14592;SDS011;7383;52.354;9.756;2024-01-11T12:59:10;6.93;;;5.68;;
14592;SDS011;7383;52.354;9.756;2024-01-11T13:01:41;8.65;;;5.82;;
14592;SDS011;7383;52.354;9.756;2024-01-11T13:04:08;8.68;;;6.05;;
14592;SDS011;7383;52.354;9.756;2024-01-11T13:06:34;9.27;;;6.35;;
14592;SDS011;7383;52.354;9.756;2024-01-11T13:09:01;7.20;;;6.35;;
14592;SDS011;7383;52.354;9.756;2024-01-11T13:11:30;8.88;;;6.28;;
14592;SDS011;7383;52.354;9.756;2024-01-11T13:13:56;9.90;;;7.65;;
14592;SDS011;7383;52.354;9.756;2024-01-11T13:16:25;7.93;;;6.55;;
14592;SDS011;7383;52.354;9.756;2024-01-11T13:18:52;9.25;;;6.72;;
14592;SDS011;7383;52.354;9.756;2024-01-11T13:21:18;9.50;;;6.65;;
14592;SDS011;7383;52.354;9.756;2024-01-11T13:23:45;10.23;;;7.30;;
14592;SDS011;7383;52.354;9.756;2024-01-11T13:26:12;9.82;;;7.38;;
14592;SDS011;7383;52.354;9.756;2024-01-11T13:28:38;11.00;;;8.10;;
14592;SDS011;7383;52.354;9.756;2024-01-11T13:31:05;11.82;;;8.45;;
14592;SDS011;7383;52.354;9.756;2024-01-11T13:33:36;10.63;;;7.70;;
14592;SDS011;7383;52.354;9.756;2024-01-11T13:36:02;13.43;;;9.25;;
14592;SDS011;7383;52.354;9.756;2024-01-11T13:38:28;10.00;;;7.57;;
14592;SDS011;7383;52.354;9.756;2024-01-11T13:40:55;11.65;;;8.43;;
14592;SDS011;7383;52.354;9.756;2024-01-11T13:43:21;11.02;;;8.68;;
14592;SDS011;7383;52.354;9.756;2024-01-11T13:45:48;13.63;;;8.27;;
14592;SDS011;7383;52.354;9.756;2024-01-11T13:48:15;13.68;;;8.85;;
14592;SDS011;7383;52.354;9.756;2024-01-11T13:50:42;12.98;;;8.05;;
14592;SDS011;7383;52.354;9.756;2024-01-11T13:53:09;11.90;;;8.68;;
14592;SDS011;7383;52.354;9.756;2024-01-11T13:55:35;12.20;;;8.80;;
14592;SDS011;7383;52.354;9.756;2024-01-11T13:58:03;9.85;;;7.95;;
14592;SDS011;7383;52.354;9.756;2024-01-11T14:00:29;15.32;;;9.30;;
14592;SDS011;7383;52.354;9.756;2024-01-11T14:02:56;15.23;;;9.68;;
14592;SDS011;7383;52.354;9.756;2024-01-11T14:05:23;17.98;;;11.52;;
14592;SDS011;7383;52.354;9.756;2024-01-11T14:07:50;15.32;;;9.35;;
14592;SDS011;7383;52.354;9.756;2024-01-11T14:10:22;14.00;;;9.73;;
14592;SDS011;7383;52.354;9.756;2024-01-11T14:12:49;11.38;;;8.63;;
14592;SDS011;7383;52.354;9.756;2024-01-11T14:15:15;13.68;;;8.75;;
14592;SDS011;7383;52.354;9.756;2024-01-11T14:17:41;20.98;;;11.88;;
14592;SDS011;7383;52.354;9.756;2024-01-11T14:20:08;11.95;;;8.52;;
14592;SDS011;7383;52.354;9.756;2024-01-11T14:22:39;12.25;;;9.40;;
14592;SDS011;7383;52.354;9.756;2024-01-11T14:25:07;17.00;;;9.38;;
14592;SDS011;7383;52.354;9.756;2024-01-11T14:27:35;12.15;;;8.85;;
14592;SDS011;7383;52.354;9.756;2024-01-11T14:30:02;11.10;;;8.80;;
14592;SDS011;7383;52.354;9.756;2024-01-11T14:32:30;13.00;;;9.02;;
14592;SDS011;7383;52.354;9.756;2024-01-11T14:34:56;10.75;;;8.43;;
14592;SDS011;7383;52.354;9.756;2024-01-11T14:37:26;9.60;;;7.53;;
14592;SDS011;7383;52.354;9.756;2024-01-11T14:39:52;9.55;;;7.57;;